sensor_id;sensor_type;location;lat;lon;timestamp;P1;durP1;ratioP1;P2;durP2;ratioP2
13327;SDS011;6733;51.044;3.746;2023-06-26T00:01:35;5.63;;;4.23;;
13327;SDS011;6733;51.044;3.746;2023-06-26T00:04:01;7.53;;;4.60;;
13327;SDS011;6733;51.044;3.746;2023-06-26T00:06:28;4.77;;;3.73;;
13327;SDS011;6733;51.044;3.746;2023-06-26T00:08:54;4.87;;;3.70;;
13327;SDS011;6733;51.044;3.746;2023-06-26T00:11:21;5.80;;;4.47;;
13327;SDS011;6733;51.044;3.746;2023-06-26T00:13:48;6.57;;;4.57;;
13327;SDS011;6733;51.044;3.746;2023-06-26T00:16:14;7.00;;;4.47;;
13327;SDS011;6733;51.044;3.746;2023-06-26T00:18:40;4.53;;;4.07;;
13327;SDS011;6733;51.044;3.746;2023-06-26T00:21:06;4.93;;;4.33;;
13327;SDS011;6733;51.044;3.746;2023-06-26T00:23:32;4.87;;;4.27;;
13327;SDS011;6733;51.044;3.746;2023-06-26T00:26:02;6.20;;;4.20;;
13327;SDS011;6733;51.044;3.746;2023-06-26T00:28:29;6.23;;;3.97;;
13327;SDS011;6733;51.044;3.746;2023-06-26T00:30:55;7.80;;;4.87;;
13327;SDS011;6733;51.044;3.746;2023-06-26T00:33:22;7.10;;;4.57;;
13327;SDS011;6733;51.044;3.746;2023-06-26T00:35:48;4.30;;;3.77;;
13327;SDS011;6733;51.044;3.746;2023-06-26T00:38:14;6.90;;;4.87;;
13327;SDS011;6733;51.044;3.746;2023-06-26T00:40:39;6.40;;;4.60;;
13327;SDS011;6733;51.044;3.746;2023-06-26T00:43:05;5.67;;;4.60;;
13327;SDS011;6733;51.044;3.746;2023-06-26T00:45:31;6.10;;;4.50;;
13327;SDS011;6733;51.044;3.746;2023-06-26T00:47:57;6.60;;;4.57;;
13327;SDS011;6733;51.044;3.746;2023-06-26T00:50:23;5.67;;;4.30;;
13327;SDS011;6733;51.044;3.746;2023-06-26T00:52:49;6.00;;;4.20;;
13327;SDS011;6733;51.044;3.746;2023-06-26T00:55:16;6.87;;;4.47;;
13327;SDS011;6733;51.044;3.746;2023-06-26T00:57:42;7.03;;;4.40;;
13327;SDS011;6733;51.044;3.746;2023-06-26T01:00:11;6.83;;;4.37;;
13327;SDS011;6733;51.044;3.746;2023-06-26T01:02:38;5.77;;;4.43;;
13327;SDS011;6733;51.044;3.746;2023-06-26T01:05:05;9.67;;;4.73;;
13327;SDS011;6733;51.044;3.746;2023-06-26T01:07:32;7.70;;;4.37;;
13327;SDS011;6733;51.044;3.746;2023-06-26T01:10:03;6.37;;;4.47;;
13327;SDS011;6733;51.044;3.746;2023-06-26T01:12:34;5.47;;;4.07;;
13327;SDS011;6733;51.044;3.746;2023-06-26T01:15:02;7.20;;;3.90;;
13327;SDS011;6733;51.044;3.746;2023-06-26T01:17:28;6.90;;;3.87;;
13327;SDS011;6733;51.044;3.746;2023-06-26T01:20:00;6.77;;;4.33;;
13327;SDS011;6733;51.044;3.746;2023-06-26T01:22:54;7.23;;;4.60;;
13327;SDS011;6733;51.044;3.746;2023-06-26T01:26:09;5.03;;;4.20;;
13327;SDS011;6733;51.044;3.746;2023-06-26T01:28:43;6.23;;;4.00;;
13327;SDS011;6733;51.044;3.746;2023-06-26T01:31:10;6.30;;;4.13;;
13327;SDS011;6733;51.044;3.746;2023-06-26T01:33:37;10.57;;;4.37;;
13327;SDS011;6733;51.044;3.746;2023-06-26T01:36:04;5.73;;;4.00;;
13327;SDS011;6733;51.044;3.746;2023-06-26T01:38:30;6.97;;;4.53;;
13327;SDS011;6733;51.044;3.746;2023-06-26T01:40:56;7.50;;;4.83;;
13327;SDS011;6733;51.044;3.746;2023-06-26T01:43:31;6.23;;;4.23;;
13327;SDS011;6733;51.044;3.746;2023-06-26T01:46:21;8.27;;;4.57;;
13327;SDS011;6733;51.044;3.746;2023-06-26T01:48:56;11.13;;;5.20;;
13327;SDS011;6733;51.044;3.746;2023-06-26T01:51:30;11.37;;;5.53;;
13327;SDS011;6733;51.044;3.746;2023-06-26T01:54:00;10.73;;;5.07;;
13327;SDS011;6733;51.044;3.746;2023-06-26T01:56:28;9.17;;;4.80;;
13327;SDS011;6733;51.044;3.746;2023-06-26T01:58:55;11.20;;;5.83;;
13327;SDS011;6733;51.044;3.746;2023-06-26T02:01:22;10.27;;;5.07;;
13327;SDS011;6733;51.044;3.746;2023-06-26T02:03:48;10.00;;;5.00;;
13327;SDS011;6733;51.044;3.746;2023-06-26T02:06:14;9.13;;;5.23;;
13327;SDS011;6733;51.044;3.746;2023-06-26T02:08:40;7.10;;;4.93;;
13327;SDS011;6733;51.044;3.746;2023-06-26T02:11:07;12.40;;;5.80;;
13327;SDS011;6733;51.044;3.746;2023-06-26T02:13:33;8.53;;;5.23;;
13327;SDS011;6733;51.044;3.746;2023-06-26T02:15:59;10.00;;;4.80;;
13327;SDS011;6733;51.044;3.746;2023-06-26T02:18:25;12.27;;;5.87;;
13327;SDS011;6733;51.044;3.746;2023-06-26T02:20:52;12.17;;;5.43;;
13327;SDS011;6733;51.044;3.746;2023-06-26T02:23:18;13.23;;;5.90;;
13327;SDS011;6733;51.044;3.746;2023-06-26T02:25:44;8.03;;;5.23;;
13327;SDS011;6733;51.044;3.746;2023-06-26T02:28:10;11.07;;;5.50;;
13327;SDS011;6733;51.044;3.746;2023-06-26T02:30:35;10.60;;;5.40;;
13327;SDS011;6733;51.044;3.746;2023-06-26T02:33:01;12.17;;;5.97;;
13327;SDS011;6733;51.044;3.746;2023-06-26T02:35:51;7.20;;;4.83;;
13327;SDS011;6733;51.044;3.746;2023-06-26T02:38:42;12.33;;;6.40;;
13327;SDS011;6733;51.044;3.746;2023-06-26T02:41:34;9.50;;;5.53;;
13327;SDS011;6733;51.044;3.746;2023-06-26T02:44:25;10.87;;;5.37;;
13327;SDS011;6733;51.044;3.746;2023-06-26T02:47:16;12.20;;;5.63;;
13327;SDS011;6733;51.044;3.746;2023-06-26T02:50:07;9.80;;;5.37;;
13327;SDS011;6733;51.044;3.746;2023-06-26T02:52:58;10.63;;;6.03;;
13327;SDS011;6733;51.044;3.746;2023-06-26T02:55:49;13.67;;;5.63;;
13327;SDS011;6733;51.044;3.746;2023-06-26T02:58:15;10.50;;;5.73;;
13327;SDS011;6733;51.044;3.746;2023-06-26T03:00:41;12.47;;;5.67;;
13327;SDS011;6733;51.044;3.746;2023-06-26T03:03:08;15.40;;;6.50;;
13327;SDS011;6733;51.044;3.746;2023-06-26T03:05:36;11.30;;;6.20;;
13327;SDS011;6733;51.044;3.746;2023-06-26T03:08:02;10.50;;;5.60;;
13327;SDS011;6733;51.044;3.746;2023-06-26T03:10:28;10.43;;;5.20;;
13327;SDS011;6733;51.044;3.746;2023-06-26T03:12:54;9.53;;;4.87;;
13327;SDS011;6733;51.044;3.746;2023-06-26T03:15:20;13.17;;;5.60;;
13327;SDS011;6733;51.044;3.746;2023-06-26T03:17:47;9.40;;;5.47;;
13327;SDS011;6733;51.044;3.746;2023-06-26T03:20:12;11.77;;;5.90;;
13327;SDS011;6733;51.044;3.746;2023-06-26T03:22:38;9.23;;;4.93;;
13327;SDS011;6733;51.044;3.746;2023-06-26T03:25:04;16.30;;;5.57;;
13327;SDS011;6733;51.044;3.746;2023-06-26T03:27:30;12.83;;;5.37;;
13327;SDS011;6733;51.044;3.746;2023-06-26T03:29:56;15.10;;;5.80;;
13327;SDS011;6733;51.044;3.746;2023-06-26T03:32:22;11.83;;;6.40;;
13327;SDS011;6733;51.044;3.746;2023-06-26T03:34:47;10.90;;;4.90;;
13327;SDS011;6733;51.044;3.746;2023-06-26T03:37:13;10.00;;;5.30;;
13327;SDS011;6733;51.044;3.746;2023-06-26T03:39:40;11.87;;;5.47;;
13327;SDS011;6733;51.044;3.746;2023-06-26T03:42:06;13.47;;;6.07;;
13327;SDS011;6733;51.044;3.746;2023-06-26T03:44:33;12.53;;;5.67;;
13327;SDS011;6733;51.044;3.746;2023-06-26T03:46:59;10.70;;;5.23;;
13327;SDS011;6733;51.044;3.746;2023-06-26T03:49:25;13.07;;;5.50;;
13327;SDS011;6733;51.044;3.746;2023-06-26T03:51:51;11.40;;;4.83;;
13327;SDS011;6733;51.044;3.746;2023-06-26T03:54:17;11.10;;;4.90;;
13327;SDS011;6733;51.044;3.746;2023-06-26T03:56:43;7.67;;;4.53;;
13327;SDS011;6733;51.044;3.746;2023-06-26T03:59:09;10.00;;;5.00;;
13327;SDS011;6733;51.044;3.746;2023-06-26T04:01:36;9.60;;;4.83;;
13327;SDS011;6733;51.044;3.746;2023-06-26T04:04:03;13.43;;;5.53;;
13327;SDS011;6733;51.044;3.746;2023-06-26T04:06:28;9.63;;;5.00;;
13327;SDS011;6733;51.044;3.746;2023-06-26T04:08:56;13.40;;;5.10;;
13327;SDS011;6733;51.044;3.746;2023-06-26T04:11:23;12.13;;;5.00;;
13327;SDS011;6733;51.044;3.746;2023-06-26T04:13:50;11.83;;;5.73;;
13327;SDS011;6733;51.044;3.746;2023-06-26T04:16:16;12.33;;;4.57;;
13327;SDS011;6733;51.044;3.746;2023-06-26T04:18:42;8.47;;;4.33;;
13327;SDS011;6733;51.044;3.746;2023-06-26T04:21:09;10.50;;;4.53;;
13327;SDS011;6733;51.044;3.746;2023-06-26T04:23:37;8.53;;;4.57;;
13327;SDS011;6733;51.044;3.746;2023-06-26T04:26:04;10.13;;;4.43;;
13327;SDS011;6733;51.044;3.746;2023-06-26T04:28:34;10.43;;;4.67;;
13327;SDS011;6733;51.044;3.746;2023-06-26T04:31:01;12.23;;;4.73;;
13327;SDS011;6733;51.044;3.746;2023-06-26T04:33:30;9.23;;;5.10;;
13327;SDS011;6733;51.044;3.746;2023-06-26T04:35:56;9.93;;;4.90;;
13327;SDS011;6733;51.044;3.746;2023-06-26T04:38:22;11.67;;;4.63;;
13327;SDS011;6733;51.044;3.746;2023-06-26T04:40:48;10.10;;;4.00;;
13327;SDS011;6733;51.044;3.746;2023-06-26T04:43:15;10.40;;;4.37;;
13327;SDS011;6733;51.044;3.746;2023-06-26T04:45:41;7.77;;;4.30;;
13327;SDS011;6733;51.044;3.746;2023-06-26T04:48:07;8.80;;;4.10;;
13327;SDS011;6733;51.044;3.746;2023-06-26T04:50:34;8.97;;;4.20;;
13327;SDS011;6733;51.044;3.746;2023-06-26T04:53:00;9.27;;;4.03;;
13327;SDS011;6733;51.044;3.746;2023-06-26T04:55:26;7.83;;;4.40;;
13327;SDS011;6733;51.044;3.746;2023-06-26T04:57:52;10.83;;;4.60;;
13327;SDS011;6733;51.044;3.746;2023-06-26T05:00:18;10.93;;;4.47;;
13327;SDS011;6733;51.044;3.746;2023-06-26T05:02:44;11.13;;;4.23;;
13327;SDS011;6733;51.044;3.746;2023-06-26T05:05:10;9.10;;;4.30;;
13327;SDS011;6733;51.044;3.746;2023-06-26T05:07:37;9.27;;;4.03;;
13327;SDS011;6733;51.044;3.746;2023-06-26T05:10:04;10.33;;;4.17;;
13327;SDS011;6733;51.044;3.746;2023-06-26T05:12:30;9.37;;;3.77;;
13327;SDS011;6733;51.044;3.746;2023-06-26T05:14:56;8.03;;;4.07;;
13327;SDS011;6733;51.044;3.746;2023-06-26T05:17:22;9.70;;;3.93;;
13327;SDS011;6733;51.044;3.746;2023-06-26T05:19:48;10.10;;;3.43;;
13327;SDS011;6733;51.044;3.746;2023-06-26T05:22:14;12.23;;;4.00;;
13327;SDS011;6733;51.044;3.746;2023-06-26T05:24:42;8.03;;;3.93;;
13327;SDS011;6733;51.044;3.746;2023-06-26T05:27:12;6.87;;;3.73;;
13327;SDS011;6733;51.044;3.746;2023-06-26T05:29:46;9.47;;;3.80;;
13327;SDS011;6733;51.044;3.746;2023-06-26T05:32:14;8.30;;;3.93;;
13327;SDS011;6733;51.044;3.746;2023-06-26T05:34:47;8.90;;;3.67;;
13327;SDS011;6733;51.044;3.746;2023-06-26T05:37:15;7.77;;;3.70;;
13327;SDS011;6733;51.044;3.746;2023-06-26T05:39:44;8.17;;;3.73;;
13327;SDS011;6733;51.044;3.746;2023-06-26T05:42:11;8.57;;;3.20;;
13327;SDS011;6733;51.044;3.746;2023-06-26T05:44:38;10.47;;;3.77;;
13327;SDS011;6733;51.044;3.746;2023-06-26T05:47:04;8.23;;;3.30;;
13327;SDS011;6733;51.044;3.746;2023-06-26T05:49:30;8.00;;;3.20;;
13327;SDS011;6733;51.044;3.746;2023-06-26T05:51:57;12.77;;;4.27;;
13327;SDS011;6733;51.044;3.746;2023-06-26T05:54:23;10.43;;;3.03;;
13327;SDS011;6733;51.044;3.746;2023-06-26T05:56:51;7.57;;;3.17;;
13327;SDS011;6733;51.044;3.746;2023-06-26T05:59:24;9.47;;;3.50;;
13327;SDS011;6733;51.044;3.746;2023-06-26T06:01:52;10.10;;;3.13;;
13327;SDS011;6733;51.044;3.746;2023-06-26T06:04:18;5.97;;;3.13;;
13327;SDS011;6733;51.044;3.746;2023-06-26T06:06:45;7.73;;;3.20;;
13327;SDS011;6733;51.044;3.746;2023-06-26T06:09:11;5.30;;;3.07;;
13327;SDS011;6733;51.044;3.746;2023-06-26T06:11:37;7.87;;;3.20;;
13327;SDS011;6733;51.044;3.746;2023-06-26T06:14:03;6.03;;;3.07;;
13327;SDS011;6733;51.044;3.746;2023-06-26T06:16:30;8.97;;;3.30;;
13327;SDS011;6733;51.044;3.746;2023-06-26T06:18:56;8.83;;;2.80;;
13327;SDS011;6733;51.044;3.746;2023-06-26T06:21:22;7.33;;;2.50;;
13327;SDS011;6733;51.044;3.746;2023-06-26T06:23:48;7.70;;;2.90;;
13327;SDS011;6733;51.044;3.746;2023-06-26T06:26:13;7.73;;;3.43;;
13327;SDS011;6733;51.044;3.746;2023-06-26T06:28:39;5.77;;;2.97;;
13327;SDS011;6733;51.044;3.746;2023-06-26T06:31:05;9.67;;;2.70;;
13327;SDS011;6733;51.044;3.746;2023-06-26T06:33:31;6.87;;;2.60;;
13327;SDS011;6733;51.044;3.746;2023-06-26T06:35:58;11.97;;;3.67;;
13327;SDS011;6733;51.044;3.746;2023-06-26T06:38:24;6.20;;;2.40;;
13327;SDS011;6733;51.044;3.746;2023-06-26T06:40:50;6.40;;;2.60;;
13327;SDS011;6733;51.044;3.746;2023-06-26T06:43:17;6.20;;;2.60;;
13327;SDS011;6733;51.044;3.746;2023-06-26T06:45:44;4.47;;;2.23;;
13327;SDS011;6733;51.044;3.746;2023-06-26T06:48:10;7.43;;;2.57;;
13327;SDS011;6733;51.044;3.746;2023-06-26T06:50:36;5.07;;;2.47;;
13327;SDS011;6733;51.044;3.746;2023-06-26T06:53:03;5.50;;;2.80;;
13327;SDS011;6733;51.044;3.746;2023-06-26T06:55:29;3.07;;;1.97;;
13327;SDS011;6733;51.044;3.746;2023-06-26T06:57:55;6.00;;;2.50;;
13327;SDS011;6733;51.044;3.746;2023-06-26T07:00:21;6.90;;;2.60;;
13327;SDS011;6733;51.044;3.746;2023-06-26T07:02:47;5.60;;;2.37;;
13327;SDS011;6733;51.044;3.746;2023-06-26T07:05:13;6.10;;;2.63;;
13327;SDS011;6733;51.044;3.746;2023-06-26T07:07:40;6.13;;;2.20;;
13327;SDS011;6733;51.044;3.746;2023-06-26T07:10:07;4.57;;;2.10;;
13327;SDS011;6733;51.044;3.746;2023-06-26T07:12:35;4.67;;;2.33;;
13327;SDS011;6733;51.044;3.746;2023-06-26T07:15:02;6.80;;;2.37;;
13327;SDS011;6733;51.044;3.746;2023-06-26T07:17:30;3.87;;;2.10;;
13327;SDS011;6733;51.044;3.746;2023-06-26T07:20:00;3.80;;;2.10;;
13327;SDS011;6733;51.044;3.746;2023-06-26T07:22:29;6.40;;;2.30;;
13327;SDS011;6733;51.044;3.746;2023-06-26T07:24:56;3.87;;;2.37;;
13327;SDS011;6733;51.044;3.746;2023-06-26T07:27:22;4.70;;;2.10;;
13327;SDS011;6733;51.044;3.746;2023-06-26T07:29:48;4.63;;;2.00;;
13327;SDS011;6733;51.044;3.746;2023-06-26T07:32:14;4.67;;;2.70;;
13327;SDS011;6733;51.044;3.746;2023-06-26T07:34:40;5.03;;;2.27;;
13327;SDS011;6733;51.044;3.746;2023-06-26T07:37:07;6.77;;;2.20;;
13327;SDS011;6733;51.044;3.746;2023-06-26T07:39:33;6.47;;;2.40;;
13327;SDS011;6733;51.044;3.746;2023-06-26T07:41:59;4.43;;;2.50;;
13327;SDS011;6733;51.044;3.746;2023-06-26T07:44:25;4.77;;;2.07;;
13327;SDS011;6733;51.044;3.746;2023-06-26T07:46:52;4.73;;;2.17;;
13327;SDS011;6733;51.044;3.746;2023-06-26T07:49:18;4.30;;;2.10;;
13327;SDS011;6733;51.044;3.746;2023-06-26T07:51:44;4.93;;;2.30;;
13327;SDS011;6733;51.044;3.746;2023-06-26T07:54:10;3.93;;;2.50;;
13327;SDS011;6733;51.044;3.746;2023-06-26T07:56:58;4.17;;;2.00;;
13327;SDS011;6733;51.044;3.746;2023-06-26T07:59:24;5.17;;;2.00;;
13327;SDS011;6733;51.044;3.746;2023-06-26T08:01:52;5.87;;;2.30;;
13327;SDS011;6733;51.044;3.746;2023-06-26T08:04:19;3.27;;;1.90;;
13327;SDS011;6733;51.044;3.746;2023-06-26T08:06:50;7.50;;;2.10;;
13327;SDS011;6733;51.044;3.746;2023-06-26T08:09:18;5.63;;;2.40;;
13327;SDS011;6733;51.044;3.746;2023-06-26T08:11:45;5.43;;;2.37;;
13327;SDS011;6733;51.044;3.746;2023-06-26T08:14:12;4.93;;;2.00;;
13327;SDS011;6733;51.044;3.746;2023-06-26T08:16:38;4.97;;;2.10;;
13327;SDS011;6733;51.044;3.746;2023-06-26T08:19:05;6.37;;;2.23;;
13327;SDS011;6733;51.044;3.746;2023-06-26T08:21:31;5.20;;;2.20;;
13327;SDS011;6733;51.044;3.746;2023-06-26T08:23:58;4.43;;;2.00;;
13327;SDS011;6733;51.044;3.746;2023-06-26T08:26:24;6.23;;;2.77;;
13327;SDS011;6733;51.044;3.746;2023-06-26T08:28:50;5.87;;;2.30;;
13327;SDS011;6733;51.044;3.746;2023-06-26T08:31:16;4.57;;;2.30;;
13327;SDS011;6733;51.044;3.746;2023-06-26T08:33:43;3.63;;;1.93;;
13327;SDS011;6733;51.044;3.746;2023-06-26T08:36:09;2.87;;;2.10;;
13327;SDS011;6733;51.044;3.746;2023-06-26T08:38:35;4.90;;;2.50;;
13327;SDS011;6733;51.044;3.746;2023-06-26T08:41:01;6.10;;;2.30;;
13327;SDS011;6733;51.044;3.746;2023-06-26T08:43:28;3.70;;;2.03;;
13327;SDS011;6733;51.044;3.746;2023-06-26T08:45:54;3.10;;;2.00;;
13327;SDS011;6733;51.044;3.746;2023-06-26T08:48:21;4.78;;;2.40;;
13327;SDS011;6733;51.044;3.746;2023-06-26T08:50:48;2.78;;;1.83;;
13327;SDS011;6733;51.044;3.746;2023-06-26T08:53:23;3.03;;;1.92;;
13327;SDS011;6733;51.044;3.746;2023-06-26T08:56:10;5.13;;;2.38;;
13327;SDS011;6733;51.044;3.746;2023-06-26T08:58:40;6.28;;;2.00;;
13327;SDS011;6733;51.044;3.746;2023-06-26T09:01:06;7.22;;;2.50;;
13327;SDS011;6733;51.044;3.746;2023-06-26T09:03:33;5.07;;;1.88;;
13327;SDS011;6733;51.044;3.746;2023-06-26T09:06:00;3.00;;;2.15;;
13327;SDS011;6733;51.044;3.746;2023-06-26T09:08:26;5.95;;;2.25;;
13327;SDS011;6733;51.044;3.746;2023-06-26T09:10:53;3.65;;;2.13;;
13327;SDS011;6733;51.044;3.746;2023-06-26T09:13:19;4.03;;;2.50;;
13327;SDS011;6733;51.044;3.746;2023-06-26T09:15:45;4.22;;;2.47;;
13327;SDS011;6733;51.044;3.746;2023-06-26T09:18:12;5.00;;;2.10;;
13327;SDS011;6733;51.044;3.746;2023-06-26T09:20:38;5.03;;;2.05;;
13327;SDS011;6733;51.044;3.746;2023-06-26T09:23:05;4.50;;;2.13;;
13327;SDS011;6733;51.044;3.746;2023-06-26T09:25:31;3.10;;;1.90;;
13327;SDS011;6733;51.044;3.746;2023-06-26T09:27:57;3.53;;;1.83;;
13327;SDS011;6733;51.044;3.746;2023-06-26T09:30:24;7.93;;;2.17;;
13327;SDS011;6733;51.044;3.746;2023-06-26T09:32:51;3.72;;;1.92;;
13327;SDS011;6733;51.044;3.746;2023-06-26T09:35:19;3.53;;;2.28;;
13327;SDS011;6733;51.044;3.746;2023-06-26T09:37:46;6.40;;;2.17;;
13327;SDS011;6733;51.044;3.746;2023-06-26T09:40:13;4.38;;;2.30;;
13327;SDS011;6733;51.044;3.746;2023-06-26T09:42:39;5.32;;;2.13;;
13327;SDS011;6733;51.044;3.746;2023-06-26T09:45:06;4.47;;;2.03;;
13327;SDS011;6733;51.044;3.746;2023-06-26T09:47:33;4.63;;;1.88;;
13327;SDS011;6733;51.044;3.746;2023-06-26T09:50:02;4.55;;;1.90;;
13327;SDS011;6733;51.044;3.746;2023-06-26T09:52:31;4.70;;;1.95;;
13327;SDS011;6733;51.044;3.746;2023-06-26T09:55:07;4.95;;;2.13;;
13327;SDS011;6733;51.044;3.746;2023-06-26T09:57:34;4.57;;;2.00;;
13327;SDS011;6733;51.044;3.746;2023-06-26T10:00:01;5.20;;;2.15;;
13327;SDS011;6733;51.044;3.746;2023-06-26T10:02:28;4.13;;;2.00;;
13327;SDS011;6733;51.044;3.746;2023-06-26T10:04:54;3.60;;;2.00;;
13327;SDS011;6733;51.044;3.746;2023-06-26T10:07:20;7.03;;;2.35;;
13327;SDS011;6733;51.044;3.746;2023-06-26T10:09:48;3.65;;;1.83;;
13327;SDS011;6733;51.044;3.746;2023-06-26T10:12:22;4.38;;;2.50;;
13327;SDS011;6733;51.044;3.746;2023-06-26T10:14:53;4.03;;;1.80;;
13327;SDS011;6733;51.044;3.746;2023-06-26T10:17:22;4.40;;;2.03;;
13327;SDS011;6733;51.044;3.746;2023-06-26T10:19:52;3.20;;;2.10;;
13327;SDS011;6733;51.044;3.746;2023-06-26T10:22:21;5.90;;;2.90;;
13327;SDS011;6733;51.044;3.746;2023-06-26T10:24:59;4.17;;;2.13;;
13327;SDS011;6733;51.044;3.746;2023-06-26T10:27:31;3.17;;;1.93;;
13327;SDS011;6733;51.044;3.746;2023-06-26T10:30:05;8.53;;;2.20;;
13327;SDS011;6733;51.044;3.746;2023-06-26T10:32:37;5.03;;;1.87;;
13327;SDS011;6733;51.044;3.746;2023-06-26T10:35:05;5.47;;;2.03;;
13327;SDS011;6733;51.044;3.746;2023-06-26T10:37:45;5.80;;;2.37;;
13327;SDS011;6733;51.044;3.746;2023-06-26T10:40:12;5.63;;;2.03;;
13327;SDS011;6733;51.044;3.746;2023-06-26T10:42:40;4.33;;;1.90;;
13327;SDS011;6733;51.044;3.746;2023-06-26T10:45:20;5.47;;;2.10;;
13327;SDS011;6733;51.044;3.746;2023-06-26T10:47:47;3.53;;;2.00;;
13327;SDS011;6733;51.044;3.746;2023-06-26T10:50:18;4.93;;;2.43;;
13327;SDS011;6733;51.044;3.746;2023-06-26T10:53:10;4.60;;;2.27;;
13327;SDS011;6733;51.044;3.746;2023-06-26T10:56:01;5.47;;;2.05;;
13327;SDS011;6733;51.044;3.746;2023-06-26T11:03:45;3.60;;;2.20;;
13327;SDS011;6733;51.044;3.746;2023-06-26T11:06:23;4.37;;;1.97;;
13327;SDS011;6733;51.044;3.746;2023-06-26T11:08:53;3.93;;;2.17;;
13327;SDS011;6733;51.044;3.746;2023-06-26T11:14:23;4.63;;;2.13;;
13327;SDS011;6733;51.044;3.746;2023-06-26T11:16:51;3.30;;;2.03;;
13327;SDS011;6733;51.044;3.746;2023-06-26T11:19:18;5.53;;;2.17;;
13327;SDS011;6733;51.044;3.746;2023-06-26T11:21:45;5.10;;;1.73;;
13327;SDS011;6733;51.044;3.746;2023-06-26T11:24:12;4.63;;;1.90;;
13327;SDS011;6733;51.044;3.746;2023-06-26T11:26:39;4.90;;;1.93;;
13327;SDS011;6733;51.044;3.746;2023-06-26T11:29:06;5.25;;;2.00;;
13327;SDS011;6733;51.044;3.746;2023-06-26T11:31:34;3.63;;;1.92;;
13327;SDS011;6733;51.044;3.746;2023-06-26T11:34:03;8.55;;;2.28;;
13327;SDS011;6733;51.044;3.746;2023-06-26T11:36:30;6.00;;;2.30;;
13327;SDS011;6733;51.044;3.746;2023-06-26T11:38:58;3.40;;;1.95;;
13327;SDS011;6733;51.044;3.746;2023-06-26T11:41:29;5.82;;;2.20;;
13327;SDS011;6733;51.044;3.746;2023-06-26T11:44:06;4.05;;;2.17;;
13327;SDS011;6733;51.044;3.746;2023-06-26T11:46:39;5.28;;;2.20;;
13327;SDS011;6733;51.044;3.746;2023-06-26T11:49:06;4.43;;;2.00;;
13327;SDS011;6733;51.044;3.746;2023-06-26T11:51:33;6.03;;;2.15;;
13327;SDS011;6733;51.044;3.746;2023-06-26T11:54:01;4.13;;;2.05;;
13327;SDS011;6733;51.044;3.746;2023-06-26T11:56:28;11.40;;;10.23;;
13327;SDS011;6733;51.044;3.746;2023-06-26T11:59:13;2.80;;;2.08;;
13327;SDS011;6733;51.044;3.746;2023-06-26T12:01:39;5.05;;;2.10;;
13327;SDS011;6733;51.044;3.746;2023-06-26T12:04:09;7.20;;;2.45;;
13327;SDS011;6733;51.044;3.746;2023-06-26T12:06:40;5.38;;;2.75;;
13327;SDS011;6733;51.044;3.746;2023-06-26T12:09:12;4.00;;;1.98;;
13327;SDS011;6733;51.044;3.746;2023-06-26T12:11:40;4.97;;;2.40;;
13327;SDS011;6733;51.044;3.746;2023-06-26T12:14:08;3.67;;;2.10;;
13327;SDS011;6733;51.044;3.746;2023-06-26T12:16:35;4.13;;;2.17;;
13327;SDS011;6733;51.044;3.746;2023-06-26T12:19:04;2.92;;;1.90;;
13327;SDS011;6733;51.044;3.746;2023-06-26T12:24:06;2.83;;;1.85;;
13327;SDS011;6733;51.044;3.746;2023-06-26T12:26:34;4.25;;;2.00;;
13327;SDS011;6733;51.044;3.746;2023-06-26T12:29:03;5.00;;;2.20;;
13327;SDS011;6733;51.044;3.746;2023-06-26T12:31:34;5.20;;;2.30;;
13327;SDS011;6733;51.044;3.746;2023-06-26T12:34:01;5.22;;;2.20;;
13327;SDS011;6733;51.044;3.746;2023-06-26T12:36:27;3.60;;;1.90;;
13327;SDS011;6733;51.044;3.746;2023-06-26T12:38:54;4.55;;;2.10;;
13327;SDS011;6733;51.044;3.746;2023-06-26T12:41:23;3.10;;;1.92;;
13327;SDS011;6733;51.044;3.746;2023-06-26T12:43:55;4.15;;;2.22;;
13327;SDS011;6733;51.044;3.746;2023-06-26T12:46:33;3.92;;;1.85;;
13327;SDS011;6733;51.044;3.746;2023-06-26T12:49:00;3.13;;;2.20;;
13327;SDS011;6733;51.044;3.746;2023-06-26T12:51:26;2.47;;;1.85;;
13327;SDS011;6733;51.044;3.746;2023-06-26T12:53:53;3.65;;;1.95;;
13327;SDS011;6733;51.044;3.746;2023-06-26T12:56:19;4.72;;;2.30;;
13327;SDS011;6733;51.044;3.746;2023-06-26T12:58:45;5.85;;;2.17;;
13327;SDS011;6733;51.044;3.746;2023-06-26T13:01:11;4.53;;;2.38;;
13327;SDS011;6733;51.044;3.746;2023-06-26T13:03:41;3.30;;;1.75;;
13327;SDS011;6733;51.044;3.746;2023-06-26T13:06:07;4.72;;;2.13;;
13327;SDS011;6733;51.044;3.746;2023-06-26T13:08:33;3.55;;;1.98;;
13327;SDS011;6733;51.044;3.746;2023-06-26T13:11:00;5.32;;;2.20;;
13327;SDS011;6733;51.044;3.746;2023-06-26T13:13:26;4.22;;;2.28;;
13327;SDS011;6733;51.044;3.746;2023-06-26T13:15:52;3.55;;;2.13;;
13327;SDS011;6733;51.044;3.746;2023-06-26T13:18:18;4.63;;;2.30;;
13327;SDS011;6733;51.044;3.746;2023-06-26T13:20:45;2.90;;;2.10;;
13327;SDS011;6733;51.044;3.746;2023-06-26T13:23:12;4.03;;;2.03;;
13327;SDS011;6733;51.044;3.746;2023-06-26T13:25:38;5.00;;;2.03;;
13327;SDS011;6733;51.044;3.746;2023-06-26T13:28:04;3.97;;;2.15;;
13327;SDS011;6733;51.044;3.746;2023-06-26T13:30:30;5.35;;;2.05;;
13327;SDS011;6733;51.044;3.746;2023-06-26T13:32:56;3.90;;;2.10;;
13327;SDS011;6733;51.044;3.746;2023-06-26T13:35:22;4.05;;;2.17;;
13327;SDS011;6733;51.044;3.746;2023-06-26T13:37:49;2.78;;;2.15;;
13327;SDS011;6733;51.044;3.746;2023-06-26T13:40:15;4.97;;;2.28;;
13327;SDS011;6733;51.044;3.746;2023-06-26T13:42:41;4.75;;;2.10;;
13327;SDS011;6733;51.044;3.746;2023-06-26T13:45:07;5.90;;;1.90;;
13327;SDS011;6733;51.044;3.746;2023-06-26T13:47:34;3.60;;;2.00;;
13327;SDS011;6733;51.044;3.746;2023-06-26T13:50:00;2.65;;;2.00;;
13327;SDS011;6733;51.044;3.746;2023-06-26T13:52:26;5.90;;;2.15;;
13327;SDS011;6733;51.044;3.746;2023-06-26T13:54:52;3.88;;;2.10;;
13327;SDS011;6733;51.044;3.746;2023-06-26T13:57:18;2.83;;;1.83;;
13327;SDS011;6733;51.044;3.746;2023-06-26T13:59:47;2.90;;;1.85;;
13327;SDS011;6733;51.044;3.746;2023-06-26T14:02:14;2.67;;;1.75;;
13327;SDS011;6733;51.044;3.746;2023-06-26T14:04:40;3.80;;;2.10;;
13327;SDS011;6733;51.044;3.746;2023-06-26T14:07:07;2.42;;;1.77;;
13327;SDS011;6733;51.044;3.746;2023-06-26T14:09:34;3.78;;;2.00;;
13327;SDS011;6733;51.044;3.746;2023-06-26T14:12:01;2.88;;;1.70;;
13327;SDS011;6733;51.044;3.746;2023-06-26T14:14:27;3.90;;;1.90;;
13327;SDS011;6733;51.044;3.746;2023-06-26T14:16:53;2.47;;;2.08;;
13327;SDS011;6733;51.044;3.746;2023-06-26T14:19:19;3.85;;;1.70;;
13327;SDS011;6733;51.044;3.746;2023-06-26T14:21:45;4.07;;;1.80;;
13327;SDS011;6733;51.044;3.746;2023-06-26T14:24:11;3.35;;;1.75;;
13327;SDS011;6733;51.044;3.746;2023-06-26T14:26:38;2.53;;;1.90;;
13327;SDS011;6733;51.044;3.746;2023-06-26T14:29:04;3.55;;;2.10;;
13327;SDS011;6733;51.044;3.746;2023-06-26T14:31:30;3.67;;;1.90;;
13327;SDS011;6733;51.044;3.746;2023-06-26T14:33:56;3.25;;;1.80;;
13327;SDS011;6733;51.044;3.746;2023-06-26T14:36:24;3.35;;;2.20;;
13327;SDS011;6733;51.044;3.746;2023-06-26T14:38:52;4.28;;;2.03;;
13327;SDS011;6733;51.044;3.746;2023-06-26T14:41:18;3.72;;;1.88;;
13327;SDS011;6733;51.044;3.746;2023-06-26T14:43:44;3.05;;;2.03;;
13327;SDS011;6733;51.044;3.746;2023-06-26T14:46:11;1.73;;;1.60;;
13327;SDS011;6733;51.044;3.746;2023-06-26T14:48:38;3.70;;;2.25;;
13327;SDS011;6733;51.044;3.746;2023-06-26T14:51:04;4.95;;;1.83;;
13327;SDS011;6733;51.044;3.746;2023-06-26T14:53:30;6.00;;;2.25;;
13327;SDS011;6733;51.044;3.746;2023-06-26T14:55:56;5.35;;;2.60;;
13327;SDS011;6733;51.044;3.746;2023-06-26T14:58:22;3.15;;;1.80;;
13327;SDS011;6733;51.044;3.746;2023-06-26T15:00:48;3.78;;;2.00;;
13327;SDS011;6733;51.044;3.746;2023-06-26T15:03:15;4.50;;;1.83;;
13327;SDS011;6733;51.044;3.746;2023-06-26T15:05:41;7.32;;;2.10;;
13327;SDS011;6733;51.044;3.746;2023-06-26T15:08:07;2.40;;;2.00;;
13327;SDS011;6733;51.044;3.746;2023-06-26T15:10:35;3.70;;;1.85;;
13327;SDS011;6733;51.044;3.746;2023-06-26T15:13:01;3.00;;;1.90;;
13327;SDS011;6733;51.044;3.746;2023-06-26T15:15:27;3.97;;;2.08;;